sensor_id;sensor_type;location;lat;lon;timestamp;P1;durP1;ratioP1;P2;durP2;ratioP2
47659;SDS011;33403;43.608;1.458;2022-08-01T00:01:57;2.17;;;2.03;;
47659;SDS011;33403;43.608;1.458;2022-08-01T00:04:23;3.45;;;2.10;;
47659;SDS011;33403;43.608;1.458;2022-08-01T00:06:49;2.50;;;2.00;;
47659;SDS011;33403;43.608;1.458;2022-08-01T00:09:15;3.15;;;2.20;;
47659;SDS011;33403;43.608;1.458;2022-08-01T00:11:41;2.40;;;2.00;;
47659;SDS011;33403;43.608;1.458;2022-08-01T00:14:07;2.20;;;2.00;;
47659;SDS011;33403;43.608;1.458;2022-08-01T00:16:36;2.97;;;2.22;;
47659;SDS011;33403;43.608;1.458;2022-08-01T00:19:03;3.97;;;2.20;;
47659;SDS011;33403;43.608;1.458;2022-08-01T00:21:29;3.60;;;2.50;;
47659;SDS011;33403;43.608;1.458;2022-08-01T00:23:55;3.15;;;2.45;;
47659;SDS011;33403;43.608;1.458;2022-08-01T00:26:21;2.40;;;2.20;;
47659;SDS011;33403;43.608;1.458;2022-08-01T00:28:47;3.17;;;2.40;;
47659;SDS011;33403;43.608;1.458;2022-08-01T00:31:13;3.65;;;2.00;;
47659;SDS011;33403;43.608;1.458;2022-08-01T00:33:39;2.72;;;2.05;;
47659;SDS011;33403;43.608;1.458;2022-08-01T00:36:05;3.58;;;2.13;;
47659;SDS011;33403;43.608;1.458;2022-08-01T00:38:31;2.53;;;2.33;;
47659;SDS011;33403;43.608;1.458;2022-08-01T00:40:57;2.85;;;2.20;;
47659;SDS011;33403;43.608;1.458;2022-08-01T00:43:23;3.85;;;2.03;;
47659;SDS011;33403;43.608;1.458;2022-08-01T00:45:50;3.13;;;2.38;;
47659;SDS011;33403;43.608;1.458;2022-08-01T00:48:16;2.78;;;2.25;;
47659;SDS011;33403;43.608;1.458;2022-08-01T00:50:42;2.80;;;2.50;;
47659;SDS011;33403;43.608;1.458;2022-08-01T00:53:08;2.88;;;2.10;;
47659;SDS011;33403;43.608;1.458;2022-08-01T00:55:34;2.97;;;2.05;;
47659;SDS011;33403;43.608;1.458;2022-08-01T00:58:00;2.78;;;2.45;;
47659;SDS011;33403;43.608;1.458;2022-08-01T01:00:26;3.00;;;2.67;;
47659;SDS011;33403;43.608;1.458;2022-08-01T01:02:52;2.70;;;2.45;;
47659;SDS011;33403;43.608;1.458;2022-08-01T01:05:18;4.05;;;2.88;;
47659;SDS011;33403;43.608;1.458;2022-08-01T01:07:47;3.00;;;2.40;;
47659;SDS011;33403;43.608;1.458;2022-08-01T01:13:03;4.10;;;2.75;;
47659;SDS011;33403;43.608;1.458;2022-08-01T01:15:34;3.20;;;2.90;;
47659;SDS011;33403;43.608;1.458;2022-08-01T01:18:08;3.30;;;2.60;;
47659;SDS011;33403;43.608;1.458;2022-08-01T01:20:42;4.93;;;2.83;;
47659;SDS011;33403;43.608;1.458;2022-08-01T01:23:15;5.30;;;3.33;;
47659;SDS011;33403;43.608;1.458;2022-08-01T01:30:48;3.88;;;2.92;;
47659;SDS011;33403;43.608;1.458;2022-08-01T01:33:15;3.30;;;3.00;;
47659;SDS011;33403;43.608;1.458;2022-08-01T01:35:42;6.28;;;3.30;;
47659;SDS011;33403;43.608;1.458;2022-08-01T01:38:12;4.50;;;3.08;;
47659;SDS011;33403;43.608;1.458;2022-08-01T01:40:40;3.63;;;3.30;;
47659;SDS011;33403;43.608;1.458;2022-08-01T01:43:07;5.72;;;3.05;;
47659;SDS011;33403;43.608;1.458;2022-08-01T01:45:35;3.35;;;3.05;;
47659;SDS011;33403;43.608;1.458;2022-08-01T01:48:02;3.22;;;2.80;;
47659;SDS011;33403;43.608;1.458;2022-08-01T01:50:29;3.53;;;3.03;;
47659;SDS011;33403;43.608;1.458;2022-08-01T01:52:55;3.33;;;3.03;;
47659;SDS011;33403;43.608;1.458;2022-08-01T01:55:22;4.43;;;3.10;;
47659;SDS011;33403;43.608;1.458;2022-08-01T01:57:49;4.18;;;3.40;;
47659;SDS011;33403;43.608;1.458;2022-08-01T02:00:15;4.85;;;3.17;;
47659;SDS011;33403;43.608;1.458;2022-08-01T02:02:42;3.28;;;2.97;;
47659;SDS011;33403;43.608;1.458;2022-08-01T02:05:09;4.10;;;3.10;;
47659;SDS011;33403;43.608;1.458;2022-08-01T02:07:36;4.20;;;3.00;;
47659;SDS011;33403;43.608;1.458;2022-08-01T02:10:03;3.40;;;3.10;;
47659;SDS011;33403;43.608;1.458;2022-08-01T02:12:32;3.53;;;3.22;;
47659;SDS011;33403;43.608;1.458;2022-08-01T02:14:58;3.63;;;2.90;;
47659;SDS011;33403;43.608;1.458;2022-08-01T02:17:25;4.30;;;3.20;;
47659;SDS011;33403;43.608;1.458;2022-08-01T02:19:52;3.80;;;3.20;;
47659;SDS011;33403;43.608;1.458;2022-08-01T02:22:32;3.40;;;3.10;;
47659;SDS011;33403;43.608;1.458;2022-08-01T02:25:00;3.42;;;3.08;;
47659;SDS011;33403;43.608;1.458;2022-08-01T02:27:34;6.72;;;2.88;;
47659;SDS011;33403;43.608;1.458;2022-08-01T02:30:04;3.58;;;3.28;;
47659;SDS011;33403;43.608;1.458;2022-08-01T02:32:36;4.07;;;3.00;;
47659;SDS011;33403;43.608;1.458;2022-08-01T02:35:02;4.05;;;3.10;;
47659;SDS011;33403;43.608;1.458;2022-08-01T02:37:33;5.78;;;3.15;;
47659;SDS011;33403;43.608;1.458;2022-08-01T02:39:59;3.85;;;3.13;;
47659;SDS011;33403;43.608;1.458;2022-08-01T02:42:26;3.75;;;3.00;;
47659;SDS011;33403;43.608;1.458;2022-08-01T02:44:53;6.07;;;3.10;;
47659;SDS011;33403;43.608;1.458;2022-08-01T02:47:19;4.93;;;3.10;;
47659;SDS011;33403;43.608;1.458;2022-08-01T02:49:46;5.97;;;3.35;;
47659;SDS011;33403;43.608;1.458;2022-08-01T02:52:14;3.80;;;3.03;;
47659;SDS011;33403;43.608;1.458;2022-08-01T02:54:41;4.40;;;3.10;;
47659;SDS011;33403;43.608;1.458;2022-08-01T02:57:09;4.57;;;3.08;;
47659;SDS011;33403;43.608;1.458;2022-08-01T02:59:36;3.25;;;2.92;;
47659;SDS011;33403;43.608;1.458;2022-08-01T03:02:04;3.42;;;2.90;;
47659;SDS011;33403;43.608;1.458;2022-08-01T03:04:31;4.05;;;3.03;;
47659;SDS011;33403;43.608;1.458;2022-08-01T03:06:58;3.47;;;3.17;;
47659;SDS011;33403;43.608;1.458;2022-08-01T03:09:26;4.93;;;3.10;;
47659;SDS011;33403;43.608;1.458;2022-08-01T03:11:52;4.07;;;3.17;;
47659;SDS011;33403;43.608;1.458;2022-08-01T03:14:19;3.33;;;2.90;;
47659;SDS011;33403;43.608;1.458;2022-08-01T03:16:46;4.40;;;3.25;;
47659;SDS011;33403;43.608;1.458;2022-08-01T03:19:13;3.47;;;3.17;;
47659;SDS011;33403;43.608;1.458;2022-08-01T03:21:39;4.65;;;3.17;;
47659;SDS011;33403;43.608;1.458;2022-08-01T03:24:06;3.35;;;2.67;;
47659;SDS011;33403;43.608;1.458;2022-08-01T03:26:34;4.15;;;3.38;;
47659;SDS011;33403;43.608;1.458;2022-08-01T03:29:05;3.45;;;3.10;;
47659;SDS011;33403;43.608;1.458;2022-08-01T03:31:33;4.18;;;3.10;;
47659;SDS011;33403;43.608;1.458;2022-08-01T03:34:00;4.13;;;3.10;;
47659;SDS011;33403;43.608;1.458;2022-08-01T03:36:26;3.30;;;2.92;;
47659;SDS011;33403;43.608;1.458;2022-08-01T03:38:56;3.60;;;3.05;;
47659;SDS011;33403;43.608;1.458;2022-08-01T03:41:23;3.33;;;3.03;;
47659;SDS011;33403;43.608;1.458;2022-08-01T03:43:56;3.20;;;2.90;;
47659;SDS011;33403;43.608;1.458;2022-08-01T03:46:36;3.55;;;3.00;;
47659;SDS011;33403;43.608;1.458;2022-08-01T03:49:06;3.65;;;3.05;;
47659;SDS011;33403;43.608;1.458;2022-08-01T03:51:33;3.70;;;3.05;;
47659;SDS011;33403;43.608;1.458;2022-08-01T03:54:00;3.65;;;2.90;;
47659;SDS011;33403;43.608;1.458;2022-08-01T03:56:26;4.43;;;3.35;;
47659;SDS011;33403;43.608;1.458;2022-08-01T03:58:55;3.58;;;3.08;;
47659;SDS011;33403;43.608;1.458;2022-08-01T04:01:22;3.95;;;3.10;;
47659;SDS011;33403;43.608;1.458;2022-08-01T04:03:48;4.05;;;2.95;;
47659;SDS011;33403;43.608;1.458;2022-08-01T04:06:14;4.28;;;3.10;;
47659;SDS011;33403;43.608;1.458;2022-08-01T04:08:42;4.82;;;3.17;;
47659;SDS011;33403;43.608;1.458;2022-08-01T04:11:08;3.92;;;3.15;;
47659;SDS011;33403;43.608;1.458;2022-08-01T04:13:34;4.57;;;3.10;;
47659;SDS011;33403;43.608;1.458;2022-08-01T04:16:00;3.30;;;3.00;;
47659;SDS011;33403;43.608;1.458;2022-08-01T04:18:27;3.03;;;2.70;;
47659;SDS011;33403;43.608;1.458;2022-08-01T04:20:53;5.00;;;3.47;;
47659;SDS011;33403;43.608;1.458;2022-08-01T04:23:21;4.72;;;3.40;;
47659;SDS011;33403;43.608;1.458;2022-08-01T04:25:48;5.07;;;3.10;;
47659;SDS011;33403;43.608;1.458;2022-08-01T04:28:15;4.85;;;3.10;;
47659;SDS011;33403;43.608;1.458;2022-08-01T04:30:42;7.72;;;3.30;;
47659;SDS011;33403;43.608;1.458;2022-08-01T04:33:09;4.10;;;3.00;;
47659;SDS011;33403;43.608;1.458;2022-08-01T04:35:37;4.57;;;2.92;;
47659;SDS011;33403;43.608;1.458;2022-08-01T04:38:05;3.45;;;2.72;;
47659;SDS011;33403;43.608;1.458;2022-08-01T04:40:33;4.38;;;3.38;;
47659;SDS011;33403;43.608;1.458;2022-08-01T04:43:00;3.80;;;2.85;;
47659;SDS011;33403;43.608;1.458;2022-08-01T04:45:26;5.93;;;3.25;;
47659;SDS011;33403;43.608;1.458;2022-08-01T04:47:53;5.82;;;2.97;;
47659;SDS011;33403;43.608;1.458;2022-08-01T04:50:19;4.45;;;3.40;;
47659;SDS011;33403;43.608;1.458;2022-08-01T04:52:49;4.65;;;2.92;;
47659;SDS011;33403;43.608;1.458;2022-08-01T04:55:16;4.28;;;3.30;;
47659;SDS011;33403;43.608;1.458;2022-08-01T04:57:42;5.93;;;3.38;;
47659;SDS011;33403;43.608;1.458;2022-08-01T05:00:10;3.42;;;2.72;;
47659;SDS011;33403;43.608;1.458;2022-08-01T05:02:36;3.65;;;3.22;;
47659;SDS011;33403;43.608;1.458;2022-08-01T05:05:03;3.38;;;3.03;;
47659;SDS011;33403;43.608;1.458;2022-08-01T05:07:30;3.75;;;3.00;;
47659;SDS011;33403;43.608;1.458;2022-08-01T05:09:56;3.88;;;3.10;;
47659;SDS011;33403;43.608;1.458;2022-08-01T05:12:22;3.60;;;3.25;;
47659;SDS011;33403;43.608;1.458;2022-08-01T05:14:48;6.30;;;2.90;;
47659;SDS011;33403;43.608;1.458;2022-08-01T05:17:15;5.10;;;3.22;;
47659;SDS011;33403;43.608;1.458;2022-08-01T05:19:41;6.07;;;3.10;;
47659;SDS011;33403;43.608;1.458;2022-08-01T05:22:08;5.03;;;3.17;;
47659;SDS011;33403;43.608;1.458;2022-08-01T05:24:35;3.72;;;3.10;;
47659;SDS011;33403;43.608;1.458;2022-08-01T05:27:02;4.00;;;3.33;;
47659;SDS011;33403;43.608;1.458;2022-08-01T05:29:28;3.80;;;2.70;;
47659;SDS011;33403;43.608;1.458;2022-08-01T05:31:54;4.15;;;3.20;;
47659;SDS011;33403;43.608;1.458;2022-08-01T05:34:21;5.32;;;3.10;;
47659;SDS011;33403;43.608;1.458;2022-08-01T05:36:47;4.82;;;3.40;;
47659;SDS011;33403;43.608;1.458;2022-08-01T05:39:13;4.25;;;3.75;;
47659;SDS011;33403;43.608;1.458;2022-08-01T05:41:39;6.15;;;3.95;;
47659;SDS011;33403;43.608;1.458;2022-08-01T05:44:06;6.47;;;3.78;;
47659;SDS011;33403;43.608;1.458;2022-08-01T05:46:32;5.45;;;3.72;;
47659;SDS011;33403;43.608;1.458;2022-08-01T05:48:58;4.70;;;3.70;;
47659;SDS011;33403;43.608;1.458;2022-08-01T05:51:25;5.95;;;4.07;;
47659;SDS011;33403;43.608;1.458;2022-08-01T05:53:51;7.38;;;4.38;;
47659;SDS011;33403;43.608;1.458;2022-08-01T05:56:17;4.90;;;3.90;;
47659;SDS011;33403;43.608;1.458;2022-08-01T05:58:43;6.20;;;4.45;;
47659;SDS011;33403;43.608;1.458;2022-08-01T06:01:09;6.32;;;4.30;;
47659;SDS011;33403;43.608;1.458;2022-08-01T06:03:35;7.10;;;4.70;;
47659;SDS011;33403;43.608;1.458;2022-08-01T06:06:02;6.07;;;4.00;;
47659;SDS011;33403;43.608;1.458;2022-08-01T06:08:28;6.50;;;4.60;;
47659;SDS011;33403;43.608;1.458;2022-08-01T06:10:54;5.85;;;4.55;;
47659;SDS011;33403;43.608;1.458;2022-08-01T06:13:21;6.43;;;4.50;;
47659;SDS011;33403;43.608;1.458;2022-08-01T06:15:47;7.35;;;4.88;;
47659;SDS011;33403;43.608;1.458;2022-08-01T06:18:13;6.57;;;4.80;;
47659;SDS011;33403;43.608;1.458;2022-08-01T06:20:39;9.38;;;5.13;;
47659;SDS011;33403;43.608;1.458;2022-08-01T06:23:05;9.02;;;5.10;;
47659;SDS011;33403;43.608;1.458;2022-08-01T06:25:31;7.32;;;5.03;;
47659;SDS011;33403;43.608;1.458;2022-08-01T06:27:58;7.25;;;5.10;;
47659;SDS011;33403;43.608;1.458;2022-08-01T06:30:24;6.70;;;5.32;;
47659;SDS011;33403;43.608;1.458;2022-08-01T06:32:50;7.38;;;5.13;;
47659;SDS011;33403;43.608;1.458;2022-08-01T06:35:17;7.85;;;5.40;;
47659;SDS011;33403;43.608;1.458;2022-08-01T06:37:43;6.88;;;5.50;;
47659;SDS011;33403;43.608;1.458;2022-08-01T06:40:12;6.57;;;5.53;;
47659;SDS011;33403;43.608;1.458;2022-08-01T06:42:38;8.82;;;5.97;;
47659;SDS011;33403;43.608;1.458;2022-08-01T06:45:05;7.20;;;5.65;;
47659;SDS011;33403;43.608;1.458;2022-08-01T06:47:32;7.82;;;5.93;;
47659;SDS011;33403;43.608;1.458;2022-08-01T06:49:58;7.25;;;5.80;;
47659;SDS011;33403;43.608;1.458;2022-08-01T06:52:24;8.00;;;6.15;;
47659;SDS011;33403;43.608;1.458;2022-08-01T06:54:50;7.80;;;5.70;;
47659;SDS011;33403;43.608;1.458;2022-08-01T06:57:16;8.02;;;6.22;;
47659;SDS011;33403;43.608;1.458;2022-08-01T06:59:42;7.25;;;5.78;;
47659;SDS011;33403;43.608;1.458;2022-08-01T07:02:08;7.38;;;5.57;;
47659;SDS011;33403;43.608;1.458;2022-08-01T07:04:34;7.15;;;5.90;;
47659;SDS011;33403;43.608;1.458;2022-08-01T07:07:00;7.30;;;5.50;;
47659;SDS011;33403;43.608;1.458;2022-08-01T07:09:26;7.88;;;5.63;;
47659;SDS011;33403;43.608;1.458;2022-08-01T07:11:53;9.10;;;5.82;;
47659;SDS011;33403;43.608;1.458;2022-08-01T07:14:19;7.00;;;5.80;;
47659;SDS011;33403;43.608;1.458;2022-08-01T07:16:45;9.95;;;6.18;;
47659;SDS011;33403;43.608;1.458;2022-08-01T07:19:11;8.70;;;6.13;;
47659;SDS011;33403;43.608;1.458;2022-08-01T07:21:37;8.25;;;5.43;;
47659;SDS011;33403;43.608;1.458;2022-08-01T07:24:04;8.63;;;5.80;;
47659;SDS011;33403;43.608;1.458;2022-08-01T07:26:30;7.95;;;5.32;;
47659;SDS011;33403;43.608;1.458;2022-08-01T07:28:56;7.32;;;5.57;;
47659;SDS011;33403;43.608;1.458;2022-08-01T07:31:22;6.40;;;5.07;;
47659;SDS011;33403;43.608;1.458;2022-08-01T07:33:49;7.82;;;5.72;;
47659;SDS011;33403;43.608;1.458;2022-08-01T07:36:15;6.80;;;5.38;;
47659;SDS011;33403;43.608;1.458;2022-08-01T07:38:41;7.82;;;6.07;;
47659;SDS011;33403;43.608;1.458;2022-08-01T07:41:07;7.13;;;5.43;;
47659;SDS011;33403;43.608;1.458;2022-08-01T07:43:33;7.22;;;5.40;;
47659;SDS011;33403;43.608;1.458;2022-08-01T07:46:01;9.63;;;5.57;;
47659;SDS011;33403;43.608;1.458;2022-08-01T07:48:27;8.43;;;5.90;;
47659;SDS011;33403;43.608;1.458;2022-08-01T07:50:53;7.25;;;5.60;;
47659;SDS011;33403;43.608;1.458;2022-08-01T07:53:19;7.68;;;5.40;;
47659;SDS011;33403;43.608;1.458;2022-08-01T07:55:45;6.25;;;5.65;;
47659;SDS011;33403;43.608;1.458;2022-08-01T07:58:11;8.27;;;5.40;;
47659;SDS011;33403;43.608;1.458;2022-08-01T08:00:37;9.10;;;6.10;;
47659;SDS011;33403;43.608;1.458;2022-08-01T08:03:03;7.97;;;5.68;;
47659;SDS011;33403;43.608;1.458;2022-08-01T08:05:30;6.55;;;5.47;;
47659;SDS011;33403;43.608;1.458;2022-08-01T08:07:57;6.25;;;5.15;;
47659;SDS011;33403;43.608;1.458;2022-08-01T08:10:23;6.57;;;5.38;;
47659;SDS011;33403;43.608;1.458;2022-08-01T08:12:49;5.45;;;4.75;;
47659;SDS011;33403;43.608;1.458;2022-08-01T08:15:15;7.78;;;5.40;;
47659;SDS011;33403;43.608;1.458;2022-08-01T08:17:41;6.55;;;4.88;;
47659;SDS011;33403;43.608;1.458;2022-08-01T08:20:08;8.35;;;5.13;;
47659;SDS011;33403;43.608;1.458;2022-08-01T08:22:35;7.88;;;5.28;;
47659;SDS011;33403;43.608;1.458;2022-08-01T08:25:01;5.30;;;4.45;;
47659;SDS011;33403;43.608;1.458;2022-08-01T08:27:27;6.43;;;4.88;;
47659;SDS011;33403;43.608;1.458;2022-08-01T08:29:53;5.38;;;4.35;;
47659;SDS011;33403;43.608;1.458;2022-08-01T08:32:19;6.70;;;4.80;;
47659;SDS011;33403;43.608;1.458;2022-08-01T08:34:45;4.40;;;4.00;;
47659;SDS011;33403;43.608;1.458;2022-08-01T08:37:11;8.00;;;5.10;;
47659;SDS011;33403;43.608;1.458;2022-08-01T08:39:37;7.68;;;4.95;;
47659;SDS011;33403;43.608;1.458;2022-08-01T08:42:07;5.97;;;4.55;;
47659;SDS011;33403;43.608;1.458;2022-08-01T08:44:33;6.40;;;4.93;;
47659;SDS011;33403;43.608;1.458;2022-08-01T08:47:00;5.65;;;4.82;;
47659;SDS011;33403;43.608;1.458;2022-08-01T08:49:28;7.63;;;4.82;;
47659;SDS011;33403;43.608;1.458;2022-08-01T08:51:57;5.75;;;4.75;;
47659;SDS011;33403;43.608;1.458;2022-08-01T08:54:24;7.47;;;5.07;;
47659;SDS011;33403;43.608;1.458;2022-08-01T08:56:51;8.30;;;4.80;;
47659;SDS011;33403;43.608;1.458;2022-08-01T08:59:17;6.18;;;4.80;;
47659;SDS011;33403;43.608;1.458;2022-08-01T09:01:44;6.75;;;4.40;;
47659;SDS011;33403;43.608;1.458;2022-08-01T09:04:10;8.05;;;4.55;;
47659;SDS011;33403;43.608;1.458;2022-08-01T09:06:37;6.10;;;4.70;;
47659;SDS011;33403;43.608;1.458;2022-08-01T09:09:03;6.07;;;4.60;;
47659;SDS011;33403;43.608;1.458;2022-08-01T09:11:29;7.18;;;4.57;;
47659;SDS011;33403;43.608;1.458;2022-08-01T09:14:09;6.07;;;4.90;;
47659;SDS011;33403;43.608;1.458;2022-08-01T09:16:36;5.97;;;4.85;;
47659;SDS011;33403;43.608;1.458;2022-08-01T09:19:16;4.90;;;4.40;;
47659;SDS011;33403;43.608;1.458;2022-08-01T09:21:56;5.00;;;4.40;;
47659;SDS011;33403;43.608;1.458;2022-08-01T09:24:22;6.47;;;4.80;;
47659;SDS011;33403;43.608;1.458;2022-08-01T09:26:48;6.45;;;4.90;;
47659;SDS011;33403;43.608;1.458;2022-08-01T09:29:23;6.78;;;4.80;;
47659;SDS011;33403;43.608;1.458;2022-08-01T09:31:49;5.13;;;4.43;;
47659;SDS011;33403;43.608;1.458;2022-08-01T09:34:23;4.75;;;4.20;;
47659;SDS011;33403;43.608;1.458;2022-08-01T09:36:53;6.80;;;4.82;;
47659;SDS011;33403;43.608;1.458;2022-08-01T09:39:24;6.82;;;4.30;;
47659;SDS011;33403;43.608;1.458;2022-08-01T09:41:53;4.40;;;4.00;;
47659;SDS011;33403;43.608;1.458;2022-08-01T09:44:19;5.10;;;4.28;;
47659;SDS011;33403;43.608;1.458;2022-08-01T09:47:01;4.80;;;4.30;;
47659;SDS011;33403;43.608;1.458;2022-08-01T09:49:28;5.47;;;4.53;;
47659;SDS011;33403;43.608;1.458;2022-08-01T09:51:54;7.38;;;4.97;;
47659;SDS011;33403;43.608;1.458;2022-08-01T09:54:30;5.82;;;4.90;;
47659;SDS011;33403;43.608;1.458;2022-08-01T09:57:06;5.10;;;4.60;;
47659;SDS011;33403;43.608;1.458;2022-08-01T09:59:37;5.28;;;4.05;;
47659;SDS011;33403;43.608;1.458;2022-08-01T10:02:05;6.13;;;4.90;;
47659;SDS011;33403;43.608;1.458;2022-08-01T10:04:31;5.10;;;4.13;;
47659;SDS011;33403;43.608;1.458;2022-08-01T10:07:07;5.93;;;4.45;;
47659;SDS011;33403;43.608;1.458;2022-08-01T10:09:35;6.20;;;4.85;;
47659;SDS011;33403;43.608;1.458;2022-08-01T10:12:02;4.63;;;4.18;;
47659;SDS011;33403;43.608;1.458;2022-08-01T10:14:28;6.63;;;4.22;;
47659;SDS011;33403;43.608;1.458;2022-08-01T10:16:55;6.18;;;4.57;;
47659;SDS011;33403;43.608;1.458;2022-08-01T10:19:22;4.95;;;4.45;;
47659;SDS011;33403;43.608;1.458;2022-08-01T10:21:53;5.03;;;4.47;;
47659;SDS011;33403;43.608;1.458;2022-08-01T10:24:22;5.25;;;4.72;;
47659;SDS011;33403;43.608;1.458;2022-08-01T10:26:50;5.55;;;4.50;;
47659;SDS011;33403;43.608;1.458;2022-08-01T10:29:19;5.53;;;4.68;;
47659;SDS011;33403;43.608;1.458;2022-08-01T10:31:46;4.95;;;4.40;;
47659;SDS011;33403;43.608;1.458;2022-08-01T10:34:13;6.15;;;4.18;;
47659;SDS011;33403;43.608;1.458;2022-08-01T10:36:46;8.48;;;4.40;;
47659;SDS011;33403;43.608;1.458;2022-08-01T10:39:12;5.68;;;5.00;;
47659;SDS011;33403;43.608;1.458;2022-08-01T10:41:39;5.93;;;5.07;;
47659;SDS011;33403;43.608;1.458;2022-08-01T10:44:06;5.93;;;4.82;;
47659;SDS011;33403;43.608;1.458;2022-08-01T10:46:32;5.88;;;4.82;;
47659;SDS011;33403;43.608;1.458;2022-08-01T10:49:04;6.15;;;5.03;;
47659;SDS011;33403;43.608;1.458;2022-08-01T10:51:34;7.13;;;4.93;;
47659;SDS011;33403;43.608;1.458;2022-08-01T10:54:02;5.85;;;4.90;;
47659;SDS011;33403;43.608;1.458;2022-08-01T10:59:06;6.18;;;5.07;;
47659;SDS011;33403;43.608;1.458;2022-08-01T11:01:32;6.03;;;4.38;;
47659;SDS011;33403;43.608;1.458;2022-08-01T11:04:01;6.22;;;4.78;;
47659;SDS011;33403;43.608;1.458;2022-08-01T11:09:03;7.05;;;5.00;;
47659;SDS011;33403;43.608;1.458;2022-08-01T11:11:30;4.72;;;4.10;;
47659;SDS011;33403;43.608;1.458;2022-08-01T11:16:38;6.93;;;4.88;;
47659;SDS011;33403;43.608;1.458;2022-08-01T11:19:05;6.13;;;4.72;;
47659;SDS011;33403;43.608;1.458;2022-08-01T11:21:57;7.30;;;4.80;;
47659;SDS011;33403;43.608;1.458;2022-08-01T11:27:15;5.30;;;4.80;;
47659;SDS011;33403;43.608;1.458;2022-08-01T11:29:42;5.38;;;4.75;;
47659;SDS011;33403;43.608;1.458;2022-08-01T11:32:23;6.65;;;5.43;;
47659;SDS011;33403;43.608;1.458;2022-08-01T11:34:53;7.18;;;5.35;;
47659;SDS011;33403;43.608;1.458;2022-08-01T11:37:26;4.93;;;4.32;;
47659;SDS011;33403;43.608;1.458;2022-08-01T11:42:37;6.38;;;5.57;;
47659;SDS011;33403;43.608;1.458;2022-08-01T11:45:03;6.70;;;4.95;;
47659;SDS011;33403;43.608;1.458;2022-08-01T11:53:01;5.13;;;4.63;;
47659;SDS011;33403;43.608;1.458;2022-08-01T11:55:27;7.10;;;5.25;;
47659;SDS011;33403;43.608;1.458;2022-08-01T11:58:03;8.95;;;5.15;;
47659;SDS011;33403;43.608;1.458;2022-08-01T12:00:29;6.35;;;4.93;;
47659;SDS011;33403;43.608;1.458;2022-08-01T12:05:25;6.85;;;4.85;;
47659;SDS011;33403;43.608;1.458;2022-08-01T12:07:51;6.93;;;4.53;;
47659;SDS011;33403;43.608;1.458;2022-08-01T12:10:18;4.63;;;4.13;;
47659;SDS011;33403;43.608;1.458;2022-08-01T12:12:48;5.25;;;4.05;;
47659;SDS011;33403;43.608;1.458;2022-08-01T12:15:15;4.93;;;4.25;;
47659;SDS011;33403;43.608;1.458;2022-08-01T12:17:46;5.97;;;4.95;;
47659;SDS011;33403;43.608;1.458;2022-08-01T12:20:16;5.35;;;4.25;;
47659;SDS011;33403;43.608;1.458;2022-08-01T12:22:44;4.95;;;4.20;;
47659;SDS011;33403;43.608;1.458;2022-08-01T12:25:11;5.70;;;4.00;;
47659;SDS011;33403;43.608;1.458;2022-08-01T12:27:39;4.47;;;3.60;;
47659;SDS011;33403;43.608;1.458;2022-08-01T12:30:26;6.57;;;3.97;;
47659;SDS011;33403;43.608;1.458;2022-08-01T12:32:54;4.60;;;3.92;;
47659;SDS011;33403;43.608;1.458;2022-08-01T12:35:21;5.32;;;4.13;;
47659;SDS011;33403;43.608;1.458;2022-08-01T12:37:49;4.68;;;3.70;;
47659;SDS011;33403;43.608;1.458;2022-08-01T12:40:49;4.68;;;3.92;;
47659;SDS011;33403;43.608;1.458;2022-08-01T12:43:08;4.38;;;3.83;;
47659;SDS011;33403;43.608;1.458;2022-08-01T12:48:01;4.13;;;3.60;;
47659;SDS011;33403;43.608;1.458;2022-08-01T12:50:28;4.60;;;3.90;;
47659;SDS011;33403;43.608;1.458;2022-08-01T12:52:55;3.60;;;3.30;;
47659;SDS011;33403;43.608;1.458;2022-08-01T12:55:25;4.78;;;3.90;;
47659;SDS011;33403;43.608;1.458;2022-08-01T13:00:30;5.93;;;3.25;;
47659;SDS011;33403;43.608;1.458;2022-08-01T13:03:03;3.50;;;3.15;;
47659;SDS011;33403;43.608;1.458;2022-08-01T13:08:12;3.20;;;2.67;;
47659;SDS011;33403;43.608;1.458;2022-08-01T13:10:38;3.15;;;2.85;;
47659;SDS011;33403;43.608;1.458;2022-08-01T13:13:04;4.95;;;2.75;;
47659;SDS011;33403;43.608;1.458;2022-08-01T13:15:31;3.83;;;3.25;;
47659;SDS011;33403;43.608;1.458;2022-08-01T13:18:00;3.90;;;3.30;;
47659;SDS011;33403;43.608;1.458;2022-08-01T13:20:28;3.20;;;2.90;;
47659;SDS011;33403;43.608;1.458;2022-08-01T13:22:54;4.38;;;3.10;;
47659;SDS011;33403;43.608;1.458;2022-08-01T13:25:20;3.10;;;2.72;;
47659;SDS011;33403;43.608;1.458;2022-08-01T13:27:46;3.50;;;3.10;;
47659;SDS011;33403;43.608;1.458;2022-08-01T13:30:17;5.00;;;3.30;;
47659;SDS011;33403;43.608;1.458;2022-08-01T13:32:44;4.05;;;3.42;;
47659;SDS011;33403;43.608;1.458;2022-08-01T13:35:22;3.33;;;3.03;;
47659;SDS011;33403;43.608;1.458;2022-08-01T13:37:48;3.65;;;3.30;;
47659;SDS011;33403;43.608;1.458;2022-08-01T13:40:22;3.78;;;2.88;;
47659;SDS011;33403;43.608;1.458;2022-08-01T13:42:48;3.53;;;3.10;;
47659;SDS011;33403;43.608;1.458;2022-08-01T13:45:14;3.45;;;2.72;;
47659;SDS011;33403;43.608;1.458;2022-08-01T13:47:43;4.03;;;3.03;;
47659;SDS011;33403;43.608;1.458;2022-08-01T13:50:09;3.80;;;3.00;;
47659;SDS011;33403;43.608;1.458;2022-08-01T13:52:35;2.72;;;2.50;;
47659;SDS011;33403;43.608;1.458;2022-08-01T13:55:01;5.82;;;3.05;;
47659;SDS011;33403;43.608;1.458;2022-08-01T13:57:27;4.18;;;3.40;;
47659;SDS011;33403;43.608;1.458;2022-08-01T13:59:54;3.03;;;2.72;;
47659;SDS011;33403;43.608;1.458;2022-08-01T14:02:20;3.67;;;3.38;;
47659;SDS011;33403;43.608;1.458;2022-08-01T14:04:46;4.70;;;3.40;;
47659;SDS011;33403;43.608;1.458;2022-08-01T14:07:12;3.42;;;3.03;;
47659;SDS011;33403;43.608;1.458;2022-08-01T14:09:38;3.42;;;3.13;;
47659;SDS011;33403;43.608;1.458;2022-08-01T14:12:04;4.00;;;3.35;;
47659;SDS011;33403;43.608;1.458;2022-08-01T14:14:30;3.25;;;2.95;;
47659;SDS011;33403;43.608;1.458;2022-08-01T14:16:56;3.15;;;2.85;;
47659;SDS011;33403;43.608;1.458;2022-08-01T14:19:23;3.55;;;2.65;;
47659;SDS011;33403;43.608;1.458;2022-08-01T14:21:49;5.20;;;3.00;;
47659;SDS011;33403;43.608;1.458;2022-08-01T14:24:17;3.83;;;2.60;;
47659;SDS011;33403;43.608;1.458;2022-08-01T14:26:43;4.28;;;2.97;;
47659;SDS011;33403;43.608;1.458;2022-08-01T14:29:09;3.28;;;2.95;;
47659;SDS011;33403;43.608;1.458;2022-08-01T14:31:35;3.90;;;2.70;;
47659;SDS011;33403;43.608;1.458;2022-08-01T14:34:01;3.50;;;2.63;;
47659;SDS011;33403;43.608;1.458;2022-08-01T14:36:27;3.15;;;2.80;;
47659;SDS011;33403;43.608;1.458;2022-08-01T14:38:53;4.07;;;2.97;;
47659;SDS011;33403;43.608;1.458;2022-08-01T14:41:19;3.08;;;2.75;;
47659;SDS011;33403;43.608;1.458;2022-08-01T14:43:45;5.28;;;3.08;;
47659;SDS011;33403;43.608;1.458;2022-08-01T14:46:11;4.00;;;2.80;;
47659;SDS011;33403;43.608;1.458;2022-08-01T14:48:37;3.00;;;2.65;;
47659;SDS011;33403;43.608;1.458;2022-08-01T14:51:04;2.80;;;2.50;;
47659;SDS011;33403;43.608;1.458;2022-08-01T14:53:32;2.55;;;2.30;;
47659;SDS011;33403;43.608;1.458;2022-08-01T14:55:59;3.72;;;2.63;;
47659;SDS011;33403;43.608;1.458;2022-08-01T14:58:26;3.10;;;2.70;;
47659;SDS011;33403;43.608;1.458;2022-08-01T15:00:52;2.88;;;2.60;;
47659;SDS011;33403;43.608;1.458;2022-08-01T15:03:19;2.67;;;2.45;;
47659;SDS011;33403;43.608;1.458;2022-08-01T15:05:45;3.97;;;3.20;;
47659;SDS011;33403;43.608;1.458;2022-08-01T15:08:11;3.13;;;2.35;;
47659;SDS011;33403;43.608;1.458;2022-08-01T15:10:37;2.75;;;2.30;;
47659;SDS011;33403;43.608;1.458;2022-08-01T15:13:03;2.58;;;2.38;;
47659;SDS011;33403;43.608;1.458;2022-08-01T15:15:29;4.18;;;2.42;;
47659;SDS011;33403;43.608;1.458;2022-08-01T15:17:55;3.40;;;2.22;;
47659;SDS011;33403;43.608;1.458;2022-08-01T15:20:22;3.50;;;2.30;;
47659;SDS011;33403;43.608;1.458;2022-08-01T15:22:48;4.75;;;2.60;;
47659;SDS011;33403;43.608;1.458;2022-08-01T15:25:14;3.42;;;2.30;;
47659;SDS011;33403;43.608;1.458;2022-08-01T15:27:40;2.65;;;2.20;;